createdAt,value
2022-10-22T00:02:21.285Z,14.60
2022-10-22T00:04:48.421Z,21.67
2022-10-22T00:07:15.137Z,22.58
2022-10-22T00:09:41.511Z,15.73
2022-10-22T00:12:09.051Z,16.98
2022-10-22T00:14:35.645Z,19.60
2022-10-22T00:17:01.933Z,27.30
2022-10-22T00:19:28.240Z,18.05
2022-10-22T00:21:54.547Z,19.92
2022-10-22T00:24:22.374Z,21.80
2022-10-22T00:26:48.669Z,18.92
2022-10-22T00:29:15.122Z,19.00
2022-10-22T00:31:41.450Z,22.20
2022-10-22T00:34:07.717Z,16.88
2022-10-22T00:36:33.989Z,19.33
2022-10-22T00:39:00.460Z,20.48
2022-10-22T00:41:26.769Z,15.95
2022-10-22T00:43:53.811Z,22.85
2022-10-22T00:46:20.090Z,24.77
2022-10-22T00:48:46.482Z,20.75
2022-10-22T00:51:13.616Z,18.50
2022-10-22T00:53:43.490Z,23.88
2022-10-22T00:56:09.977Z,19.40
2022-10-22T00:58:38.774Z,28.33
2022-10-22T01:01:08.809Z,25.10
2022-10-22T01:03:35.173Z,18.33
2022-10-22T01:06:03.232Z,18.92
2022-10-22T01:08:32.704Z,19.92
2022-10-22T01:10:58.988Z,20.10
2022-10-22T01:13:32.903Z,19.88
2022-10-22T01:16:04.110Z,15.15
2022-10-22T01:18:59.675Z,24.55
2022-10-22T01:21:25.941Z,19.50
2022-10-22T01:24:05.949Z,22.20
2022-10-22T01:26:38.008Z,18.77
2022-10-22T01:29:13.345Z,19.35
2022-10-22T01:31:44.396Z,21.83
2022-10-22T01:34:12.363Z,19.33
2022-10-22T01:36:38.751Z,20.08
2022-10-22T01:39:05.517Z,24.17
2022-10-22T01:41:31.955Z,20.75
2022-10-22T01:43:58.240Z,20.48
2022-10-22T01:46:25.479Z,20.23
2022-10-22T01:49:12.684Z,19.58
2022-10-22T01:51:57.383Z,17.33
2022-10-22T01:54:34.092Z,20.52
2022-10-22T01:57:18.928Z,16.20
2022-10-22T01:59:54.435Z,21.85
2022-10-22T02:02:21.015Z,22.70
2022-10-22T02:05:02.563Z,19.20
2022-10-22T02:07:32.221Z,18.13
2022-10-22T02:09:59.604Z,19.33
2022-10-22T02:12:26.865Z,18.40
2022-10-22T02:14:53.736Z,22.10
2022-10-22T02:17:22.382Z,17.73
2022-10-22T02:19:56.770Z,19.25
2022-10-22T02:22:23.391Z,23.00
2022-10-22T02:24:50.215Z,22.55
2022-10-22T02:27:16.488Z,20.40
2022-10-22T02:29:57.800Z,22.23
2022-10-22T02:32:26.169Z,24.08
2022-10-22T02:34:53.028Z,25.35
2022-10-22T02:37:20.007Z,23.65
2022-10-22T02:39:46.519Z,20.80
2022-10-22T02:42:12.928Z,20.42
2022-10-22T02:44:39.235Z,30.73
2022-10-22T02:47:05.562Z,23.95
2022-10-22T02:49:31.867Z,27.95
2022-10-22T02:51:58.530Z,22.90
2022-10-22T02:54:24.804Z,21.98
2022-10-22T02:56:51.091Z,21.85
2022-10-22T02:59:17.393Z,21.25
2022-10-22T03:01:43.688Z,17.17
2022-10-22T03:04:09.991Z,18.95
2022-10-22T03:06:36.304Z,21.15
2022-10-22T03:09:02.705Z,26.50
2022-10-22T03:11:29.042Z,20.88
2022-10-22T03:13:55.327Z,33.35
2022-10-22T03:16:21.660Z,17.83
2022-10-22T03:18:47.930Z,19.95
2022-10-22T03:21:34.680Z,24.42
2022-10-22T03:24:02.918Z,23.73
2022-10-22T03:26:29.425Z,21.38
2022-10-22T03:28:55.869Z,24.95
2022-10-22T03:31:22.145Z,20.88
2022-10-22T03:33:48.517Z,14.93
2022-10-22T03:36:15.020Z,19.13
2022-10-22T03:38:41.599Z,20.63
2022-10-22T03:41:07.987Z,25.55
2022-10-22T03:43:35.063Z,19.33
2022-10-22T03:46:01.579Z,23.52
2022-10-22T03:48:27.879Z,15.02
2022-10-22T03:50:54.172Z,21.25
2022-10-22T03:53:20.527Z,31.92
2022-10-22T03:55:46.926Z,20.25
2022-10-22T03:58:13.227Z,16.35
2022-10-22T04:00:39.756Z,17.48
2022-10-22T04:03:06.086Z,20.35
2022-10-22T04:05:33.693Z,22.10
2022-10-22T04:08:00.246Z,26.70
2022-10-22T04:10:26.628Z,19.60
2022-10-22T04:12:52.963Z,21.27
2022-10-22T04:15:19.258Z,18.65
2022-10-22T04:17:45.587Z,22.15
2022-10-22T04:20:11.950Z,18.50
2022-10-22T04:22:38.284Z,23.35
2022-10-22T04:25:04.995Z,26.20
2022-10-22T04:27:32.329Z,21.38
2022-10-22T04:29:58.745Z,19.50
2022-10-22T04:32:25.724Z,23.40
2022-10-22T04:34:52.038Z,16.98
2022-10-22T04:37:18.531Z,23.80
2022-10-22T04:39:44.875Z,22.55
2022-10-22T04:42:11.243Z,19.33
2022-10-22T04:44:37.515Z,23.30
2022-10-22T04:47:03.991Z,24.75
2022-10-22T04:49:30.259Z,25.00
2022-10-22T04:51:56.747Z,19.33
2022-10-22T04:54:23.144Z,26.05
2022-10-22T04:56:49.418Z,27.52
2022-10-22T04:59:15.773Z,28.35
2022-10-22T05:01:43.483Z,25.13
2022-10-22T05:04:14.231Z,26.95
2022-10-22T05:06:40.686Z,18.55
2022-10-22T05:09:08.456Z,21.65
2022-10-22T05:11:36.067Z,19.77
2022-10-22T05:14:03.479Z,19.48
2022-10-22T05:16:30.313Z,22.35
2022-10-22T05:18:57.903Z,27.50
2022-10-22T05:21:24.200Z,24.85
2022-10-22T05:23:50.749Z,24.77
2022-10-22T05:26:18.812Z,20.05
2022-10-22T05:28:45.513Z,19.13
2022-10-22T05:31:12.771Z,19.48
2022-10-22T05:33:39.456Z,20.00
2022-10-22T05:36:06.962Z,26.70
2022-10-22T05:38:33.948Z,19.55
2022-10-22T05:41:00.778Z,29.02
2022-10-22T05:43:27.222Z,25.83
2022-10-22T05:45:53.483Z,24.80
2022-10-22T05:48:19.977Z,25.80
2022-10-22T05:50:50.496Z,18.10
2022-10-22T05:53:18.311Z,23.48
2022-10-22T05:55:44.668Z,20.45
2022-10-22T05:58:11.943Z,27.98
2022-10-22T06:00:38.234Z,30.92
2022-10-22T06:03:04.623Z,29.20
2022-10-22T06:05:30.924Z,20.95
2022-10-22T06:07:57.448Z,28.02
2022-10-22T06:10:23.855Z,27.45
2022-10-22T06:12:50.268Z,34.55
2022-10-22T06:15:17.861Z,26.02
2022-10-22T06:17:44.533Z,24.48
2022-10-22T06:20:11.499Z,32.60
2022-10-22T06:22:37.854Z,28.10
2022-10-22T06:25:04.794Z,24.70
2022-10-22T06:27:31.108Z,25.73
2022-10-22T06:29:57.380Z,27.67
2022-10-22T06:32:23.691Z,40.88
2022-10-22T06:34:50.440Z,29.88
2022-10-22T06:37:17.406Z,35.72
2022-10-22T06:39:43.691Z,26.70
2022-10-22T06:42:10.015Z,26.27
2022-10-22T06:44:36.395Z,26.77
2022-10-22T06:47:02.703Z,25.27
2022-10-22T06:49:28.986Z,28.10
2022-10-22T06:51:55.310Z,19.23
2022-10-22T06:54:22.171Z,25.48
2022-10-22T06:56:48.609Z,28.02
2022-10-22T06:59:14.939Z,26.23
2022-10-22T07:01:42.203Z,33.85
2022-10-22T07:04:09.900Z,21.42
2022-10-22T07:06:36.480Z,26.63
2022-10-22T07:09:02.947Z,20.17
2022-10-22T07:11:30.694Z,19.15
2022-10-22T07:13:58.035Z,24.08
2022-10-22T07:16:28.173Z,20.05
2022-10-22T07:18:58.663Z,22.58
2022-10-22T07:21:28.123Z,22.77
2022-10-22T07:23:54.736Z,26.10
2022-10-22T07:26:21.174Z,24.77
2022-10-22T07:28:48.070Z,19.88
2022-10-22T07:31:15.007Z,21.23
2022-10-22T07:33:41.372Z,21.85
2022-10-22T07:36:09.025Z,19.40
2022-10-22T07:38:35.485Z,16.42
2022-10-22T07:41:02.165Z,14.32
2022-10-22T07:43:28.444Z,13.18
2022-10-22T07:45:57.851Z,14.95
2022-10-22T07:48:24.439Z,14.77
2022-10-22T07:50:51.352Z,15.77
2022-10-22T07:53:18.022Z,16.38
2022-10-22T07:55:44.430Z,11.50
2022-10-22T07:58:10.694Z,8.60
2022-10-22T08:00:37.593Z,12.80
2022-10-22T08:03:04.141Z,17.42
2022-10-22T08:05:30.416Z,13.85
2022-10-22T08:07:56.690Z,17.85
2022-10-22T08:10:22.994Z,12.65
2022-10-22T08:12:49.319Z,16.30
2022-10-22T08:15:15.704Z,21.05
2022-10-22T08:17:42.380Z,13.23
2022-10-22T08:20:09.052Z,12.73
2022-10-22T08:22:35.343Z,11.85
2022-10-22T08:25:01.721Z,19.27
2022-10-22T08:27:27.994Z,18.65
2022-10-22T08:29:54.286Z,9.05
2022-10-22T08:32:20.589Z,14.98
2022-10-22T08:34:46.875Z,10.23
2022-10-22T08:37:14.283Z,7.70
2022-10-22T08:39:41.199Z,15.20
2022-10-22T08:42:26.189Z,13.35
2022-10-22T08:45:06.637Z,16.52
2022-10-22T08:47:51.671Z,12.15
2022-10-22T08:50:22.608Z,13.23
2022-10-22T08:52:52.313Z,12.80
2022-10-22T08:55:18.742Z,17.55
2022-10-22T08:58:08.335Z,10.00
2022-10-22T09:00:34.635Z,12.52
2022-10-22T09:03:06.863Z,18.90
2022-10-22T09:08:23.287Z,15.90
2022-10-22T09:10:51.886Z,16.00
2022-10-22T09:13:20.430Z,11.63
2022-10-22T09:15:52.484Z,9.30
2022-10-22T09:18:21.853Z,17.70
2022-10-22T09:20:49.752Z,17.08
2022-10-22T09:23:34.896Z,15.07
2022-10-22T09:26:01.263Z,16.13
2022-10-22T09:28:27.635Z,11.90
2022-10-22T09:30:54.120Z,14.02
2022-10-22T09:33:27.611Z,15.57
2022-10-22T09:35:55.767Z,12.55
2022-10-22T09:38:25.858Z,16.65
2022-10-22T09:40:54.077Z,20.10
2022-10-22T09:43:20.389Z,10.02
2022-10-22T09:45:47.298Z,17.85
2022-10-22T09:48:14.703Z,11.60
2022-10-22T09:50:43.418Z,8.75
2022-10-22T09:53:14.093Z,11.85
2022-10-22T09:55:41.613Z,17.55
2022-10-22T09:58:10.116Z,16.58
2022-10-22T10:00:37.921Z,11.50
2022-10-22T10:03:04.265Z,10.88
2022-10-22T10:05:34.421Z,11.32
2022-10-22T10:08:14.055Z,9.00
2022-10-22T10:10:46.527Z,8.50
2022-10-22T10:13:22.381Z,10.48
2022-10-22T10:16:08.907Z,9.80
2022-10-22T10:18:54.490Z,11.27
2022-10-22T10:21:39.762Z,6.65
2022-10-22T10:24:06.012Z,11.75
2022-10-22T10:26:39.089Z,15.25
2022-10-22T10:29:14.038Z,12.95
2022-10-22T10:31:47.407Z,10.60
2022-10-22T10:34:24.283Z,21.55
2022-10-22T10:37:10.318Z,9.77
2022-10-22T10:39:45.802Z,9.45
2022-10-22T10:42:21.663Z,9.73
2022-10-22T10:44:56.759Z,6.85
2022-10-22T10:47:39.040Z,11.38
2022-10-22T10:50:16.485Z,12.00
2022-10-22T10:53:03.942Z,11.45
2022-10-22T10:55:42.898Z,11.18
2022-10-22T10:58:09.138Z,12.05
2022-10-22T11:00:40.874Z,13.60
2022-10-22T11:03:16.190Z,9.30
2022-10-22T11:05:46.063Z,9.25
2022-10-22T11:08:15.265Z,8.57
2022-10-22T11:10:53.790Z,8.07
2022-10-22T11:13:20.295Z,12.20
2022-10-22T11:15:50.397Z,13.40
2022-10-22T11:18:27.616Z,12.70
2022-10-22T11:21:08.982Z,10.23
2022-10-22T11:23:51.637Z,19.63
2022-10-22T11:26:43.981Z,11.77
2022-10-22T11:29:17.260Z,8.65
2022-10-22T11:31:44.419Z,13.15
2022-10-22T11:34:34.760Z,9.00
2022-10-22T11:37:03.074Z,8.32
2022-10-22T11:39:36.339Z,6.50
2022-10-22T11:42:04.301Z,8.30
2022-10-22T11:44:32.412Z,9.93
2022-10-22T11:47:15.517Z,11.77
2022-10-22T11:49:43.062Z,13.27
2022-10-22T11:52:26.079Z,13.35
2022-10-22T11:54:57.649Z,6.53
2022-10-22T11:57:26.657Z,13.03
2022-10-22T11:59:55.939Z,12.07
2022-10-22T12:02:28.074Z,13.18
2022-10-22T12:05:12.786Z,10.10
2022-10-22T12:07:58.322Z,20.13
2022-10-22T12:10:28.217Z,11.07
2022-10-22T12:13:01.303Z,24.45
2022-10-22T12:15:28.570Z,14.05
2022-10-22T12:18:04.066Z,12.63
2022-10-22T12:20:32.436Z,11.50
2022-10-22T12:23:00.652Z,14.15
2022-10-22T12:25:34.775Z,8.35
2022-10-22T12:28:02.787Z,16.17
2022-10-22T12:30:34.604Z,14.95
2022-10-22T12:33:02.728Z,21.33
2022-10-22T12:35:30.589Z,17.10
2022-10-22T12:37:57.966Z,9.25
2022-10-22T12:40:26.596Z,14.75
2022-10-22T12:42:54.211Z,13.45
2022-10-22T12:45:20.585Z,13.32
2022-10-22T12:47:52.266Z,9.45
2022-10-22T12:50:32.807Z,9.57
2022-10-22T12:52:59.361Z,24.50
2022-10-22T12:55:25.900Z,15.00
2022-10-22T12:57:52.436Z,16.20
2022-10-22T13:00:23.346Z,13.15
2022-10-22T13:02:49.738Z,17.95
2022-10-22T13:05:33.991Z,11.20
2022-10-22T13:08:04.559Z,21.00
2022-10-22T13:10:32.269Z,15.60
2022-10-22T13:12:58.778Z,10.77
2022-10-22T13:15:28.122Z,13.13
2022-10-22T13:18:04.773Z,13.48
2022-10-22T13:20:31.345Z,10.98
2022-10-22T13:23:02.683Z,19.00
2022-10-22T13:25:29.962Z,16.02
2022-10-22T13:27:57.819Z,11.25
2022-10-22T13:30:27.022Z,18.55
2022-10-22T13:33:06.661Z,14.45
2022-10-22T13:35:34.550Z,16.33
2022-10-22T13:38:01.047Z,14.65
2022-10-22T13:40:27.728Z,13.30
2022-10-22T13:42:54.155Z,12.32
2022-10-22T13:45:20.521Z,18.73
2022-10-22T13:47:52.454Z,17.10
2022-10-22T13:50:19.502Z,21.40
2022-10-22T13:52:49.539Z,11.27
2022-10-22T13:55:29.636Z,10.80
2022-10-22T13:58:12.063Z,17.77
2022-10-22T14:00:40.729Z,12.73
2022-10-22T14:03:09.803Z,15.55
2022-10-22T14:05:36.088Z,16.27
2022-10-22T14:08:02.731Z,21.55
2022-10-22T14:10:29.038Z,16.25
2022-10-22T14:12:55.324Z,17.15
2022-10-22T14:15:24.023Z,17.95
2022-10-22T14:17:52.985Z,18.45
2022-10-22T14:20:20.970Z,15.10
2022-10-22T14:22:48.002Z,19.13
2022-10-22T14:25:15.833Z,14.13
2022-10-22T14:27:42.630Z,16.83
2022-10-22T14:30:09.541Z,17.98
2022-10-22T14:32:35.893Z,13.77
2022-10-22T14:35:02.205Z,15.85
2022-10-22T14:37:28.573Z,17.77
2022-10-22T14:40:01.157Z,14.27
2022-10-22T14:42:27.993Z,16.85
2022-10-22T14:44:54.463Z,18.05
2022-10-22T14:47:21.309Z,8.65
2022-10-22T14:49:47.609Z,13.82
2022-10-22T14:52:15.978Z,15.63
2022-10-22T14:54:42.278Z,25.55
2022-10-22T14:57:11.293Z,12.82
2022-10-22T14:59:37.774Z,12.40
2022-10-22T15:02:04.054Z,18.20
2022-10-22T15:04:30.484Z,14.80
2022-10-22T15:06:56.844Z,19.02
2022-10-22T15:09:23.667Z,17.02
2022-10-22T15:11:50.483Z,15.18
2022-10-22T15:14:17.032Z,21.40
2022-10-22T15:16:43.316Z,22.35
2022-10-22T15:19:11.095Z,24.17
2022-10-22T15:21:37.423Z,23.42
2022-10-22T15:24:04.670Z,12.10
2022-10-22T15:26:30.947Z,19.60
2022-10-22T15:28:57.254Z,23.10
2022-10-22T15:31:43.824Z,19.02
2022-10-22T15:34:10.266Z,16.25
2022-10-22T15:36:36.534Z,12.90
2022-10-22T15:39:09.853Z,20.45
2022-10-22T15:41:37.020Z,19.80
2022-10-22T15:44:05.739Z,16.65
2022-10-22T15:46:35.349Z,21.77
2022-10-22T15:49:01.931Z,13.82
2022-10-22T15:51:28.258Z,19.52
2022-10-22T15:53:55.684Z,17.73
2022-10-22T15:56:22.027Z,15.00
2022-10-22T15:58:52.099Z,12.75
2022-10-22T16:01:18.464Z,15.13
2022-10-22T16:03:45.151Z,13.77
2022-10-22T16:06:11.464Z,18.35
2022-10-22T16:08:38.278Z,19.77
2022-10-22T16:11:05.063Z,20.35
2022-10-22T16:13:31.500Z,15.25
2022-10-22T16:15:57.780Z,18.67
2022-10-22T16:18:26.974Z,19.27
2022-10-22T16:20:53.252Z,14.30
2022-10-22T16:23:20.763Z,23.33
2022-10-22T16:25:47.093Z,20.65
2022-10-22T16:28:13.687Z,27.95
2022-10-22T16:30:40.270Z,20.55
2022-10-22T16:33:06.828Z,27.60
2022-10-22T16:35:33.129Z,16.02
2022-10-22T16:37:59.558Z,18.83
2022-10-22T16:40:25.831Z,17.50
2022-10-22T16:42:52.248Z,17.13
2022-10-22T16:45:18.584Z,19.75
2022-10-22T16:47:46.915Z,16.00
2022-10-22T16:50:13.625Z,14.68
2022-10-22T16:52:41.133Z,17.50
2022-10-22T16:55:07.570Z,20.20
2022-10-22T16:57:33.958Z,24.13
2022-10-22T17:00:00.242Z,21.83
2022-10-22T17:02:26.536Z,18.27
2022-10-22T17:04:52.806Z,21.23
2022-10-22T17:07:19.140Z,26.00
2022-10-22T17:09:45.485Z,21.42
2022-10-22T17:12:11.765Z,25.00
2022-10-22T17:14:38.067Z,28.83
2022-10-22T17:17:04.601Z,19.38
2022-10-22T17:19:30.950Z,34.13
2022-10-22T17:21:57.243Z,28.20
2022-10-22T17:24:23.522Z,27.95
2022-10-22T17:26:49.820Z,26.42
2022-10-22T17:29:16.704Z,21.23
2022-10-22T17:31:43.020Z,36.95
2022-10-22T17:34:10.716Z,25.88
2022-10-22T17:36:37.080Z,30.33
2022-10-22T17:39:05.017Z,25.60
2022-10-22T17:41:32.313Z,27.08
2022-10-22T17:44:01.906Z,30.15
2022-10-22T17:46:29.090Z,30.77
2022-10-22T17:48:57.128Z,29.15
2022-10-22T17:51:24.410Z,26.73
2022-10-22T17:53:50.946Z,21.77
2022-10-22T17:56:18.336Z,26.10
2022-10-22T17:58:44.624Z,26.63
2022-10-22T18:01:21.928Z,24.08
2022-10-22T18:03:48.740Z,28.52
2022-10-22T18:06:15.338Z,24.13
2022-10-22T18:08:41.776Z,31.98
2022-10-22T18:11:13.041Z,36.33
2022-10-22T18:13:39.368Z,37.88
2022-10-22T18:16:05.840Z,28.40
2022-10-22T18:18:33.459Z,18.05
2022-10-22T18:21:00.543Z,28.60
2022-10-22T18:23:27.056Z,23.15
2022-10-22T18:25:53.526Z,26.00
2022-10-22T18:28:20.542Z,25.10
2022-10-22T18:30:47.304Z,20.02
2022-10-22T18:33:14.327Z,22.55
2022-10-22T18:35:43.439Z,28.60
2022-10-22T18:38:10.275Z,21.13
2022-10-22T18:40:38.523Z,18.33
2022-10-22T18:43:04.796Z,50.70
2022-10-22T18:45:32.540Z,34.30
2022-10-22T18:48:00.596Z,25.50
2022-10-22T18:50:27.776Z,28.92
2022-10-22T18:52:54.422Z,25.40
2022-10-22T18:55:20.701Z,24.77
2022-10-22T18:57:47.306Z,26.50
2022-10-22T19:00:14.199Z,26.25
2022-10-22T19:02:40.836Z,27.27
2022-10-22T19:05:07.467Z,35.75
2022-10-22T19:07:34.064Z,30.40
2022-10-22T19:10:00.465Z,40.85
2022-10-22T19:12:26.753Z,34.72
2022-10-22T19:14:53.099Z,39.95
2022-10-22T19:17:19.388Z,36.13
2022-10-22T19:19:45.692Z,30.95
2022-10-22T19:22:13.445Z,37.70
2022-10-22T19:24:39.770Z,36.97
2022-10-22T19:27:06.122Z,32.10
2022-10-22T19:29:32.456Z,37.83
2022-10-22T19:31:58.918Z,33.30
2022-10-22T19:34:25.274Z,38.15
2022-10-22T19:36:51.830Z,31.45
2022-10-22T19:39:18.467Z,28.90
2022-10-22T19:41:44.854Z,28.40
2022-10-22T19:44:11.401Z,28.45
2022-10-22T19:46:37.801Z,37.63
2022-10-22T19:49:04.460Z,27.60
2022-10-22T19:51:31.252Z,49.95
2022-10-22T19:53:59.118Z,55.45
2022-10-22T19:56:25.423Z,48.88
2022-10-22T19:58:51.783Z,53.33
2022-10-22T20:01:18.494Z,56.30
2022-10-22T20:03:44.952Z,47.70
2022-10-22T20:06:12.434Z,34.83
2022-10-22T20:08:38.894Z,30.95
2022-10-22T20:11:07.311Z,34.85
2022-10-22T20:13:37.097Z,29.45
2022-10-22T20:16:03.972Z,33.10
2022-10-22T20:18:32.567Z,38.75
2022-10-22T20:20:58.850Z,29.85
2022-10-22T20:23:25.205Z,31.23
2022-10-22T20:25:51.484Z,40.63
2022-10-22T20:28:17.764Z,46.47
2022-10-22T20:30:44.877Z,46.67
2022-10-22T20:33:14.464Z,28.95
2022-10-22T20:35:40.797Z,33.47
2022-10-22T20:38:07.667Z,32.95
2022-10-22T20:40:34.326Z,36.42
2022-10-22T20:43:01.062Z,33.90
2022-10-22T20:45:27.575Z,34.58
2022-10-22T20:48:02.046Z,30.50
2022-10-22T20:50:31.302Z,27.55
2022-10-22T20:52:57.844Z,23.40
2022-10-22T20:55:24.224Z,30.65
2022-10-22T20:57:51.575Z,32.70
2022-10-22T21:00:18.002Z,26.83
2022-10-22T21:02:44.333Z,33.33
2022-10-22T21:05:10.625Z,24.20
2022-10-22T21:07:36.934Z,25.77
2022-10-22T21:10:03.995Z,30.60
2022-10-22T21:12:30.255Z,28.15
2022-10-22T21:14:56.566Z,26.95
2022-10-22T21:17:22.866Z,29.25
2022-10-22T21:19:49.142Z,27.15
2022-10-22T21:22:15.415Z,28.05
2022-10-22T21:24:42.156Z,32.22
2022-10-22T21:27:08.907Z,41.75
2022-10-22T21:29:35.158Z,39.13
2022-10-22T21:32:03.936Z,44.72
2022-10-22T21:34:30.485Z,32.55
2022-10-22T21:36:57.462Z,38.58
2022-10-22T21:39:23.736Z,42.30
2022-10-22T21:41:50.106Z,24.88
2022-10-22T21:44:16.420Z,29.73
2022-10-22T21:46:42.744Z,29.30
2022-10-22T21:49:09.088Z,34.85
2022-10-22T21:51:37.925Z,32.10
2022-10-22T21:54:04.358Z,34.65
2022-10-22T21:56:34.880Z,27.73
2022-10-22T21:59:02.944Z,27.85
2022-10-22T22:01:29.479Z,29.48
2022-10-22T22:03:55.871Z,26.08
2022-10-22T22:06:26.272Z,29.83
2022-10-22T22:08:54.284Z,34.60
2022-10-22T22:11:22.207Z,37.20
2022-10-22T22:13:48.846Z,27.75
2022-10-22T22:16:22.436Z,31.90
2022-10-22T22:18:52.015Z,33.10
2022-10-22T22:21:19.349Z,46.70
2022-10-22T22:23:46.395Z,35.08
2022-10-22T22:26:13.368Z,30.67
2022-10-22T22:28:39.672Z,31.35
2022-10-22T22:31:16.393Z,33.40
2022-10-22T22:33:42.727Z,34.22
2022-10-22T22:36:09.516Z,39.83
2022-10-22T22:38:36.908Z,27.33
2022-10-22T22:41:03.331Z,32.22
2022-10-22T22:43:29.644Z,37.42
2022-10-22T22:46:03.610Z,30.83
2022-10-22T22:48:30.236Z,35.53
2022-10-22T22:50:56.791Z,29.90
2022-10-22T22:53:23.083Z,35.88
2022-10-22T22:55:50.043Z,31.83
2022-10-22T22:58:16.335Z,27.50
2022-10-22T23:00:42.725Z,37.13
2022-10-22T23:03:09.005Z,26.25
2022-10-22T23:05:36.171Z,31.38
2022-10-22T23:08:02.455Z,23.48
2022-10-22T23:10:28.764Z,20.83
2022-10-22T23:12:55.024Z,28.63
2022-10-22T23:15:21.416Z,31.23
2022-10-22T23:17:47.683Z,23.88
2022-10-22T23:20:13.999Z,25.77
2022-10-22T23:22:40.498Z,31.75
2022-10-22T23:25:07.090Z,26.45
2022-10-22T23:27:33.367Z,20.33
2022-10-22T23:29:59.670Z,24.45
2022-10-22T23:32:25.951Z,26.13
2022-10-22T23:34:52.236Z,23.65
2022-10-22T23:37:18.583Z,27.75
2022-10-22T23:39:44.863Z,23.42
2022-10-22T23:42:11.147Z,19.35
2022-10-22T23:44:37.439Z,24.92
2022-10-22T23:47:03.738Z,27.00
2022-10-22T23:49:30.032Z,24.10
2022-10-22T23:51:56.298Z,28.77
2022-10-22T23:54:23.623Z,27.40
2022-10-22T23:56:49.907Z,31.73
2022-10-22T23:59:16.453Z,31.60
